Greentop, Missouri
Current Conditions -  °F | °C
As of 2:20 PM on Wednesday 26 Nov 2014 (Local Time) from KIRK Reporting Station
Haze Haze  
Wind Chill: 34°   Ceiling: 200
Heat Index: 34°   Visibility: 1.7mi
Dew Point: 34°   Wind: 3mph
Humidity: 100%   Direction: 120°ESE
Pressure: 29.93"   Gusts: NA
Location:  40.35°N, 92.57°W
Report Text: KIRK 262020Z AUTO 12003KT 1 3/4SM BR OVC002 01/01 A2993 RMK AO2 T00110011
Loading
Personal Weather Stations






























Interactive Weather Map New forecast layout! Learn more

10-Day Weather Forecast

Advertisements
Track Severe Weather on mobile